Time;durP1;ratioP1;P1;durP2;ratioP2;P2;SDS_P1;SDS_P2;PMS_P1;PMS_P2;Temp;Humidity;BMP_temperature;BMP_pressure;BME280_temperature;BME280_humidity;BME280_pressure;Samples;Min_cycle;Max_cycle;Signal;HPM_P1;HPM_P2
2022/06/05 00:02:00;;;;;;;;;;;24.50;63.90;;;;;;5025651;28;82925;-47
2022/06/05 00:04:37;;;;;;;;;;;24.50;63.90;;;;;;5025739;28;82994;-47
2022/06/05 00:07:05;;;;;;;;;;;24.40;63.90;;;;;;5026609;28;83296;-46
2022/06/05 00:09:34;;;;;;;;;;;24.40;63.90;;;;;;5028846;28;84195;-46
2022/06/05 00:12:13;;;;;;;;;;;24.40;63.90;;;;;;5026303;28;83777;-45
2022/06/05 00:14:40;;;;;;;;;;;24.40;64.00;;;;;;5026351;28;82953;-47
2022/06/05 00:17:09;;;;;;;;;;;24.30;63.80;;;;;;5026326;28;81967;-46
2022/06/05 00:19:36;;;;;;;;;;;24.30;63.90;;;;;;5026202;28;83894;-46
2022/06/05 00:22:02;;;;;;;;;;;24.30;63.90;;;;;;5025910;28;83491;-48
2022/06/05 00:24:27;;;;;;;;;;;24.30;63.90;;;;;;5026082;28;82110;-45
2022/06/05 00:26:54;;;;;;;;;;;24.30;64.00;;;;;;5026095;28;83872;-46
2022/06/05 00:29:38;;;;;;;;;;;24.30;64.00;;;;;;5025419;28;83875;-45
2022/06/05 00:32:03;;;;;;;;;;;24.30;64.00;;;;;;5028809;28;81979;-45
2022/06/05 00:34:29;;;;;;;;;;;24.30;64.00;;;;;;5026003;28;82904;-45
2022/06/05 00:36:59;;;;;;;;;;;24.20;64.00;;;;;;5025991;28;81869;-47
2022/06/05 00:39:44;;;;;;;;;;;24.20;64.10;;;;;;5026191;28;81932;-45
2022/06/05 00:42:11;;;;;;;;;;;24.20;64.60;;;;;;5025954;28;83099;-46
2022/06/05 00:44:43;;;;;;;;;;;24.20;64.10;;;;;;5026137;28;82120;-46
2022/06/05 00:47:13;;;;;;;;;;;24.20;64.10;;;;;;5026134;28;83060;-45
2022/06/05 00:49:58;;;;;;;;;;;24.20;64.10;;;;;;5025700;28;84238;-45
2022/06/05 00:52:26;;;;;;;;;;;24.20;64.10;;;;;;5025182;28;81912;-47
2022/06/05 00:54:51;;;;;;;;;;;24.20;64.20;;;;;;5027977;28;84003;-48
2022/06/05 00:57:17;;;;;;;;;;;24.10;64.20;;;;;;5025756;28;82005;-47
2022/06/05 00:59:45;;;;;;;;;;;24.10;64.10;;;;;;5025829;28;82401;-47
2022/06/05 01:02:11;;;;;;;;;;;24.00;64.20;;;;;;5025565;28;82057;-47
2022/06/05 01:04:39;;;;;;;;;;;24.00;64.10;;;;;;5025964;28;82080;-47
2022/06/05 01:07:04;;;;;;;;;;;24.10;64.20;;;;;;5025577;28;82405;-49
2022/06/05 01:09:30;;;;;;;;;;;24.10;64.10;;;;;;5025678;28;82841;-48
2022/06/05 01:12:02;;;;;;;;;;;24.00;64.20;;;;;;5026394;28;81335;-47
2022/06/05 01:14:33;;;;;;;;;;;24.00;64.20;;;;;;5028323;28;83074;-48
2022/06/05 01:16:58;;;;;;;;;;;24.00;64.20;;;;;;5031661;28;83089;-48
2022/06/05 01:19:37;;;;;;;;;;;24.00;64.20;;;;;;5028780;28;82868;-47
2022/06/05 01:22:21;;;;;;;;;;;24.00;64.30;;;;;;5028537;28;83008;-45
2022/06/05 01:25:02;;;;;;;;;;;24.00;64.30;;;;;;5028945;28;82178;-47
2022/06/05 01:27:31;;;;;;;;;;;23.90;64.20;;;;;;5029304;28;82365;-48
2022/06/05 01:30:05;;;;;;;;;;;23.90;64.30;;;;;;5028573;28;84451;-47
2022/06/05 01:32:43;;;;;;;;;;;23.90;64.30;;;;;;5029115;28;82075;-47
2022/06/05 01:35:21;;;;;;;;;;;23.90;64.30;;;;;;5028682;28;84077;-47
2022/06/05 01:37:50;;;;;;;;;;;23.90;64.90;;;;;;5031956;28;82214;-48
2022/06/05 01:40:18;;;;;;;;;;;23.90;64.20;;;;;;5028701;28;82004;-48
2022/06/05 01:42:49;;;;;;;;;;;23.90;64.40;;;;;;5028734;28;82212;-48
2022/06/05 01:45:21;;;;;;;;;;;23.90;64.30;;;;;;5028128;28;82928;-50
2022/06/05 01:47:49;;;;;;;;;;;23.80;64.40;;;;;;5028183;28;85130;-49
2022/06/05 01:50:20;;;;;;;;;;;23.80;64.30;;;;;;5028508;28;82876;-47
2022/06/05 01:53:00;;;;;;;;;;;23.80;64.40;;;;;;5028184;28;82548;-48
2022/06/05 01:55:33;;;;;;;;;;;23.80;64.40;;;;;;5028501;28;82395;-47
2022/06/05 01:58:01;;;;;;;;;;;23.70;64.40;;;;;;5028614;28;83097;-48
2022/06/05 02:00:26;;;;;;;;;;;23.80;64.40;;;;;;5031126;28;82109;-47
2022/06/05 02:02:55;;;;;;;;;;;23.80;64.40;;;;;;5028826;28;82861;-47
2022/06/05 02:05:23;;;;;;;;;;;23.70;64.40;;;;;;5028488;28;82071;-47
2022/06/05 02:07:51;;;;;;;;;;;23.70;64.40;;;;;;5028351;28;82396;-48
2022/06/05 02:10:24;;;;;;;;;;;23.70;64.40;;;;;;5027494;28;83907;-49
2022/06/05 02:12:50;;;;;;;;;;;23.70;64.50;;;;;;5027949;28;81990;-48
2022/06/05 02:15:16;;;;;;;;;;;23.70;64.40;;;;;;5028299;28;84150;-45
2022/06/05 02:17:42;;;;;;;;;;;23.70;64.50;;;;;;5028257;28;82942;-47
2022/06/05 02:20:08;;;;;;;;;;;23.60;64.50;;;;;;5028307;28;82242;-47
2022/06/05 02:22:37;;;;;;;;;;;23.70;64.50;;;;;;5030527;28;82424;-48
2022/06/05 02:25:03;;;;;;;;;;;23.70;64.40;;;;;;5027514;28;82065;-48
2022/06/05 02:27:28;;;;;;;;;;;23.60;64.50;;;;;;5027988;28;83999;-47
2022/06/05 02:29:55;;;;;;;;;;;23.60;64.60;;;;;;5028104;28;82252;-47
2022/06/05 02:32:21;;;;;;;;;;;23.60;64.50;;;;;;5027898;28;82545;-47
2022/06/05 02:34:53;;;;;;;;;;;23.60;64.50;;;;;;5027477;28;82844;-48
2022/06/05 02:37:37;;;;;;;;;;;23.60;64.50;;;;;;5027959;28;83125;-47
2022/06/05 02:40:12;;;;;;;;;;;23.60;64.60;;;;;;5027672;28;81920;-47
2022/06/05 02:42:41;;;;;;;;;;;23.60;64.50;;;;;;5027710;28;83010;-47
2022/06/05 02:45:28;;;;;;;;;;;23.50;64.50;;;;;;5030172;28;82947;-47
2022/06/05 02:47:53;;;;;;;;;;;23.50;64.50;;;;;;5027515;28;83940;-47
2022/06/05 02:50:22;;;;;;;;;;;23.50;64.80;;;;;;5027259;28;84298;-48
2022/06/05 02:52:49;;;;;;;;;;;23.50;64.60;;;;;;5028142;28;81393;-48
2022/06/05 02:55:16;;;;;;;;;;;23.40;64.60;;;;;;5027680;28;81997;-47
2022/06/05 02:57:42;;;;;;;;;;;23.50;64.60;;;;;;5027508;28;83313;-48
2022/06/05 03:00:10;;;;;;;;;;;23.40;64.60;;;;;;5026874;28;82893;-47
2022/06/05 03:05:19;;;;;;;;;;;23.40;64.60;;;;;;5027546;28;82257;-48
2022/06/05 03:07:45;;;;;;;;;;;23.40;64.60;;;;;;5030358;28;82189;-47
2022/06/05 03:10:11;;;;;;;;;;;23.40;64.70;;;;;;5027122;28;83379;-47
2022/06/05 03:12:36;;;;;;;;;;;23.40;64.70;;;;;;5027385;28;82015;-49
2022/06/05 03:15:02;;;;;;;;;;;23.40;64.70;;;;;;5027200;28;84082;-47
2022/06/05 03:17:29;;;;;;;;;;;23.40;64.70;;;;;;5027700;28;82494;-48
2022/06/05 03:19:55;;;;;;;;;;;23.30;64.60;;;;;;5027075;28;82103;-48
2022/06/05 03:22:20;;;;;;;;;;;23.30;64.70;;;;;;5027042;28;82336;-48
2022/06/05 03:24:46;;;;;;;;;;;23.30;64.70;;;;;;5026295;28;83908;-48
2022/06/05 03:27:11;;;;;;;;;;;23.30;64.70;;;;;;5027170;28;82102;-49
2022/06/05 03:29:37;;;;;;;;;;;23.30;64.70;;;;;;5029556;28;83927;-48
2022/06/05 03:32:03;;;;;;;;;;;23.30;64.80;;;;;;5027091;28;82068;-48
2022/06/05 03:34:28;;;;;;;;;;;23.30;64.70;;;;;;5026626;28;83277;-48
2022/06/05 03:36:54;;;;;;;;;;;23.30;64.70;;;;;;5025951;28;82232;-47
2022/06/05 03:39:19;;;;;;;;;;;23.30;64.80;;;;;;5026836;28;82185;-48
2022/06/05 03:41:45;;;;;;;;;;;23.20;64.80;;;;;;5027263;28;82320;-47
2022/06/05 03:44:12;;;;;;;;;;;23.20;64.80;;;;;;5026661;28;83314;-47
2022/06/05 03:46:39;;;;;;;;;;;23.20;64.80;;;;;;5026563;28;81920;-47
2022/06/05 03:49:08;;;;;;;;;;;23.20;64.80;;;;;;5028690;28;82833;-47
2022/06/05 03:51:34;;;;;;;;;;;23.20;64.80;;;;;;5026293;28;82120;-47
2022/06/05 03:54:00;;;;;;;;;;;23.20;64.80;;;;;;5027030;28;82334;-49
2022/06/05 03:56:26;;;;;;;;;;;23.20;64.80;;;;;;5026600;28;82902;-48
2022/06/05 03:58:52;;;;;;;;;;;23.10;64.80;;;;;;5026655;28;82075;-47
2022/06/05 04:01:19;;;;;;;;;;;23.10;64.80;;;;;;5026632;28;82465;-47
2022/06/05 04:03:45;;;;;;;;;;;23.20;64.80;;;;;;5026083;28;84693;-48
2022/06/05 04:06:12;;;;;;;;;;;23.10;64.80;;;;;;5027161;28;81279;-49
2022/06/05 04:08:38;;;;;;;;;;;23.10;64.80;;;;;;5026546;28;81971;-46
2022/06/05 04:11:09;;;;;;;;;;;23.10;64.80;;;;;;5029097;28;83054;-47
2022/06/05 04:13:34;;;;;;;;;;;23.00;64.90;;;;;;5025867;28;82932;-47
2022/06/05 04:16:00;;;;;;;;;;;23.10;64.90;;;;;;5026298;28;83042;-47
2022/06/05 04:18:26;;;;;;;;;;;23.10;64.80;;;;;;5026236;28;82163;-47
2022/06/05 04:20:51;;;;;;;;;;;23.10;64.90;;;;;;5026515;28;82441;-47
2022/06/05 04:23:17;;;;;;;;;;;23.00;64.80;;;;;;5026103;28;83145;-47
2022/06/05 04:25:43;;;;;;;;;;;23.00;64.90;;;;;;5026239;28;82002;-48
2022/06/05 04:28:08;;;;;;;;;;;23.00;64.90;;;;;;5026011;28;84292;-48
2022/06/05 04:30:38;;;;;;;;;;;23.00;64.80;;;;;;5026539;28;81663;-47
2022/06/05 04:33:03;;;;;;;;;;;23.00;64.90;;;;;;5028849;28;81962;-49
2022/06/05 04:35:29;;;;;;;;;;;23.00;64.90;;;;;;5025960;28;81946;-47
2022/06/05 04:37:54;;;;;;;;;;;23.00;64.90;;;;;;5025795;28;83077;-47
2022/06/05 04:40:20;;;;;;;;;;;23.00;64.90;;;;;;5026093;28;83454;-48
2022/06/05 04:42:46;;;;;;;;;;;23.00;64.90;;;;;;5025460;28;83552;-47
2022/06/05 04:45:11;;;;;;;;;;;23.00;64.90;;;;;;5026163;28;82129;-47
2022/06/05 04:47:37;;;;;;;;;;;23.00;64.90;;;;;;5025423;28;82155;-47
2022/06/05 04:50:02;;;;;;;;;;;23.00;64.90;;;;;;5025411;28;82241;-47
2022/06/05 04:52:28;;;;;;;;;;;23.00;64.90;;;;;;5025287;28;82158;-48
2022/06/05 04:54:53;;;;;;;;;;;22.90;64.80;;;;;;5029060;28;82648;-48
2022/06/05 04:57:19;;;;;;;;;;;23.00;65.00;;;;;;5025834;28;82119;-48
2022/06/05 04:59:44;;;;;;;;;;;23.00;65.00;;;;;;5025956;28;82043;-47
2022/06/05 05:02:10;;;;;;;;;;;22.90;64.90;;;;;;5024801;28;84098;-49
2022/06/05 05:04:35;;;;;;;;;;;22.90;64.90;;;;;;5025477;28;82140;-47
2022/06/05 05:07:03;;;;;;;;;;;22.90;65.10;;;;;;5025749;28;81997;-48
2022/06/05 05:09:29;;;;;;;;;;;22.90;65.10;;;;;;5025331;28;84332;-47
2022/06/05 05:11:54;;;;;;;;;;;22.90;65.10;;;;;;5025790;28;81983;-47
2022/06/05 05:14:20;;;;;;;;;;;22.90;65.10;;;;;;5025807;28;82444;-47
2022/06/05 05:16:45;;;;;;;;;;;22.90;65.10;;;;;;5027939;28;82312;-47
2022/06/05 05:19:11;;;;;;;;;;;22.90;65.20;;;;;;5026121;28;82591;-47
2022/06/05 05:21:36;;;;;;;;;;;22.90;65.20;;;;;;5025546;28;83332;-47
2022/06/05 05:24:02;;;;;;;;;;;22.90;65.30;;;;;;5025218;28;84018;-47
2022/06/05 05:26:29;;;;;;;;;;;22.90;65.20;;;;;;5024736;28;83204;-48
2022/06/05 05:28:55;;;;;;;;;;;22.90;65.20;;;;;;5025399;28;83610;-47
2022/06/05 05:31:37;;;;;;;;;;;22.90;65.30;;;;;;5025187;28;82009;-47
2022/06/05 05:34:03;;;;;;;;;;;22.90;65.30;;;;;;5025082;28;83907;-47
2022/06/05 05:36:29;;;;;;;;;;;22.90;65.30;;;;;;5024861;28;84692;-47
2022/06/05 05:44:25;;;;;;;;;;;22.90;65.30;;;;;;5025865;28;81249;-47
2022/06/05 05:46:50;;;;;;;;;;;22.90;65.40;;;;;;5025041;28;82552;-47
2022/06/05 05:49:16;;;;;;;;;;;22.90;65.40;;;;;;5025097;28;83013;-47
2022/06/05 05:51:42;;;;;;;;;;;22.90;65.40;;;;;;5023940;28;83008;-47
2022/06/05 05:54:08;;;;;;;;;;;22.90;65.50;;;;;;5025259;28;83356;-47
2022/06/05 05:56:34;;;;;;;;;;;22.90;65.50;;;;;;5024649;28;84633;-48
2022/06/05 05:59:00;;;;;;;;;;;22.90;65.50;;;;;;5028452;28;82048;-47
2022/06/05 06:01:26;;;;;;;;;;;22.90;65.50;;;;;;5028324;28;82936;-47
2022/06/05 06:03:51;;;;;;;;;;;22.90;65.50;;;;;;5028601;28;82066;-47
2022/06/05 06:06:18;;;;;;;;;;;22.90;65.50;;;;;;5028642;28;82884;-47
2022/06/05 06:08:44;;;;;;;;;;;22.90;65.70;;;;;;5028615;28;82458;-48
2022/06/05 06:11:09;;;;;;;;;;;22.90;65.50;;;;;;5028087;28;81935;-47
2022/06/05 06:13:35;;;;;;;;;;;22.90;65.60;;;;;;5028218;28;82517;-47
2022/06/05 06:16:00;;;;;;;;;;;22.90;65.50;;;;;;5027613;28;84171;-47
2022/06/05 06:18:26;;;;;;;;;;;22.90;65.50;;;;;;5028288;28;82083;-46
2022/06/05 06:20:51;;;;;;;;;;;22.90;65.60;;;;;;5030853;28;81900;-47
2022/06/05 06:23:17;;;;;;;;;;;22.90;65.60;;;;;;5027755;28;83185;-48
2022/06/05 06:25:42;;;;;;;;;;;22.90;65.60;;;;;;5028004;28;82555;-48
2022/06/05 06:28:08;;;;;;;;;;;22.90;65.60;;;;;;5028000;28;82920;-46
2022/06/05 06:30:34;;;;;;;;;;;22.90;65.60;;;;;;5028007;28;81884;-47
2022/06/05 06:33:00;;;;;;;;;;;22.90;65.50;;;;;;5028688;28;81245;-46
2022/06/05 06:35:25;;;;;;;;;;;22.90;65.50;;;;;;5027784;28;82852;-47
2022/06/05 06:37:51;;;;;;;;;;;22.90;65.60;;;;;;5028007;28;82062;-46
2022/06/05 06:40:16;;;;;;;;;;;22.90;65.60;;;;;;5027461;28;82919;-47
2022/06/05 06:42:42;;;;;;;;;;;22.90;65.60;;;;;;5030260;28;83487;-47
2022/06/05 06:45:07;;;;;;;;;;;22.90;65.60;;;;;;5027879;28;82519;-47
2022/06/05 06:47:33;;;;;;;;;;;22.90;65.50;;;;;;5027911;28;83082;-46
2022/06/05 06:49:59;;;;;;;;;;;23.00;65.60;;;;;;5027478;28;81975;-46
2022/06/05 06:52:25;;;;;;;;;;;23.00;65.60;;;;;;5027304;28;82278;-47
2022/06/05 06:54:51;;;;;;;;;;;23.00;65.60;;;;;;5027140;28;84292;-47
2022/06/05 06:57:17;;;;;;;;;;;23.00;65.70;;;;;;5027962;28;81352;-47
2022/06/05 06:59:42;;;;;;;;;;;23.00;65.60;;;;;;5027665;28;81993;-47
2022/06/05 07:02:08;;;;;;;;;;;23.00;65.70;;;;;;5027398;28;83015;-46
2022/06/05 07:04:34;;;;;;;;;;;23.00;65.70;;;;;;5029524;28;82784;-47
2022/06/05 07:06:59;;;;;;;;;;;23.00;65.70;;;;;;5026909;28;84545;-47
2022/06/05 07:09:25;;;;;;;;;;;23.00;65.70;;;;;;5027574;28;82830;-47
2022/06/05 07:11:50;;;;;;;;;;;23.00;65.80;;;;;;5026908;28;83063;-47
2022/06/05 07:14:16;;;;;;;;;;;23.00;65.70;;;;;;5027428;28;83020;-47
2022/06/05 07:16:42;;;;;;;;;;;23.00;65.70;;;;;;5027325;28;81943;-47
2022/06/05 07:19:08;;;;;;;;;;;23.00;65.80;;;;;;5027154;28;82903;-47
2022/06/05 07:21:33;;;;;;;;;;;23.10;65.70;;;;;;5027753;28;82305;-47
2022/06/05 07:23:59;;;;;;;;;;;23.00;66.00;;;;;;5026505;28;82096;-47
2022/06/05 07:26:26;;;;;;;;;;;23.00;65.80;;;;;;5029369;28;82818;-47
2022/06/05 07:28:53;;;;;;;;;;;23.00;65.70;;;;;;5025104;28;83116;-46
2022/06/05 07:31:19;;;;;;;;;;;23.00;65.70;;;;;;5026898;28;85351;-46
2022/06/05 07:33:45;;;;;;;;;;;23.10;65.80;;;;;;5026958;28;82269;-46
2022/06/05 07:36:11;;;;;;;;;;;23.10;65.80;;;;;;5027066;28;82064;-48
2022/06/05 07:38:37;;;;;;;;;;;23.00;65.70;;;;;;5027450;28;83178;-47
2022/06/05 07:41:04;;;;;;;;;;;23.10;65.60;;;;;;5026674;28;83010;-48
2022/06/05 07:43:29;;;;;;;;;;;23.00;65.70;;;;;;5026866;28;81982;-47
2022/06/05 07:45:57;;;;;;;;;;;23.00;65.70;;;;;;5029878;28;82479;-46
2022/06/05 07:48:22;;;;;;;;;;;23.10;65.70;;;;;;5026877;28;82128;-47
2022/06/05 07:56:16;;;;;;;;;;;23.10;65.80;;;;;;5024428;28;81880;-47
2022/06/05 07:58:42;;;;;;;;;;;23.10;65.80;;;;;;5026709;28;82073;-47
2022/06/05 08:01:08;;;;;;;;;;;23.10;65.70;;;;;;5026832;28;83209;-47
2022/06/05 08:03:34;;;;;;;;;;;23.10;66.10;;;;;;5026690;28;82025;-47
2022/06/05 08:05:59;;;;;;;;;;;23.10;65.80;;;;;;5026405;28;83802;-46
2022/06/05 08:08:25;;;;;;;;;;;23.10;65.90;;;;;;5029153;28;83014;-47
2022/06/05 08:10:50;;;;;;;;;;;23.10;66.10;;;;;;5027243;28;82520;-47
2022/06/05 08:13:16;;;;;;;;;;;23.10;65.90;;;;;;5026266;28;82182;-47
2022/06/05 08:15:44;;;;;;;;;;;23.10;66.10;;;;;;5026454;28;82079;-47
2022/06/05 08:18:10;;;;;;;;;;;23.10;65.80;;;;;;5025831;28;82976;-47
2022/06/05 08:20:36;;;;;;;;;;;23.10;65.70;;;;;;5026334;28;83184;-46
2022/06/05 08:23:02;;;;;;;;;;;23.10;65.90;;;;;;5025347;28;83142;-47
2022/06/05 08:25:28;;;;;;;;;;;23.10;65.60;;;;;;5026099;28;83202;-47
2022/06/05 08:27:53;;;;;;;;;;;23.10;65.80;;;;;;5026174;28;82080;-49
2022/06/05 08:30:19;;;;;;;;;;;23.20;66.10;;;;;;5028906;28;81953;-47
2022/06/05 08:32:44;;;;;;;;;;;23.10;66.20;;;;;;5026226;28;82844;-47
2022/06/05 08:35:10;;;;;;;;;;;23.20;65.80;;;;;;5026746;28;81374;-48
2022/06/05 08:43:24;;;;;;;;;;;23.20;65.50;;;;;;5024390;28;83421;-47
2022/06/05 08:45:57;;;;;;;;;;;23.20;65.50;;;;;;5025657;28;83613;-47
2022/06/05 08:48:25;;;;;;;;;;;23.20;65.50;;;;;;5025721;28;84366;-49
2022/06/05 08:50:55;;;;;;;;;;;23.20;65.50;;;;;;5025943;28;82056;-47
2022/06/05 08:53:26;;;;;;;;;;;23.20;65.60;;;;;;5028466;28;82629;-48
2022/06/05 08:55:54;;;;;;;;;;;23.20;65.60;;;;;;5025906;28;81971;-49
2022/06/05 08:58:45;;;;;;;;;;;23.20;65.50;;;;;;5025584;28;84040;-47
2022/06/05 09:01:13;;;;;;;;;;;23.20;65.70;;;;;;5026200;28;82069;-47
2022/06/05 09:03:52;;;;;;;;;;;23.20;65.60;;;;;;5025842;28;82097;-47
2022/06/05 09:06:21;;;;;;;;;;;23.20;65.60;;;;;;5025554;28;82649;-47
2022/06/05 09:08:52;;;;;;;;;;;23.30;65.60;;;;;;5024400;28;83876;-49
2022/06/05 09:11:32;;;;;;;;;;;23.30;65.60;;;;;;5025582;28;82118;-47
2022/06/05 09:14:04;;;;;;;;;;;23.30;65.60;;;;;;5025826;28;82389;-47
2022/06/05 09:16:30;;;;;;;;;;;23.30;65.60;;;;;;5028288;28;82855;-47
2022/06/05 09:18:57;;;;;;;;;;;23.30;65.50;;;;;;5025510;28;83751;-47
2022/06/05 09:21:26;;;;;;;;;;;23.30;65.50;;;;;;5025001;28;84363;-47
2022/06/05 09:23:55;;;;;;;;;;;23.30;65.60;;;;;;5025113;28;82066;-47
2022/06/05 09:26:26;;;;;;;;;;;23.40;65.60;;;;;;5026313;28;82384;-47
2022/06/05 09:29:15;;;;;;;;;;;23.40;65.80;;;;;;5025275;28;82948;-47
2022/06/05 09:31:55;;;;;;;;;;;23.40;65.40;;;;;;5005540;28;82016;-48
2022/06/05 09:34:33;;;;;;;;;;;23.40;65.50;;;;;;5025607;28;83109;-47
2022/06/05 09:37:02;;;;;;;;;;;23.40;65.50;;;;;;5028927;28;82935;-47
2022/06/05 09:39:27;;;;;;;;;;;23.40;65.40;;;;;;5031553;28;81963;-47
2022/06/05 09:42:08;;;;;;;;;;;23.40;65.40;;;;;;5028808;28;82887;-47
2022/06/05 09:44:37;;;;;;;;;;;23.40;65.30;;;;;;5028879;28;82942;-47
2022/06/05 09:47:04;;;;;;;;;;;23.50;65.40;;;;;;5028868;28;82299;-48
2022/06/05 09:49:33;;;;;;;;;;;23.50;65.80;;;;;;5028407;28;84696;-47
2022/06/05 09:52:14;;;;;;;;;;;23.50;65.10;;;;;;5028946;28;81425;-48
2022/06/05 09:54:43;;;;;;;;;;;23.50;65.10;;;;;;5028699;28;81838;-48
2022/06/05 10:00:02;;;;;;;;;;;23.50;64.90;;;;;;5030906;28;82896;-48
2022/06/05 10:02:28;;;;;;;;;;;23.60;65.00;;;;;;5028324;28;82084;-47
2022/06/05 10:04:53;;;;;;;;;;;23.60;64.90;;;;;;5028617;28;82032;-48
2022/06/05 10:07:29;;;;;;;;;;;23.60;64.90;;;;;;5028378;28;82656;-47
2022/06/05 10:09:55;;;;;;;;;;;23.60;64.80;;;;;;5028223;28;83004;-48
2022/06/05 10:12:28;;;;;;;;;;;23.60;64.80;;;;;;5028491;28;81807;-47
2022/06/05 10:14:56;;;;;;;;;;;23.70;64.90;;;;;;5028066;28;81889;-45
2022/06/05 10:17:31;;;;;;;;;;;23.60;64.70;;;;;;5028541;28;82096;-47
2022/06/05 10:19:59;;;;;;;;;;;23.70;64.80;;;;;;5028279;28;82094;-47
2022/06/05 10:22:40;;;;;;;;;;;23.70;64.90;;;;;;5030907;28;82491;-48
2022/06/05 10:25:14;;;;;;;;;;;23.70;64.80;;;;;;5027571;28;82987;-48
2022/06/05 10:27:47;;;;;;;;;;;23.70;64.70;;;;;;5028216;28;83597;-48
2022/06/05 10:30:15;;;;;;;;;;;23.70;64.60;;;;;;5027994;28;83180;-49
2022/06/05 10:32:46;;;;;;;;;;;23.70;64.60;;;;;;5028081;28;82101;-49
2022/06/05 10:35:14;;;;;;;;;;;23.70;64.50;;;;;;5028121;28;82209;-48
2022/06/05 10:37:44;;;;;;;;;;;23.80;64.50;;;;;;5027766;28;82151;-48
2022/06/05 10:40:17;;;;;;;;;;;23.80;64.50;;;;;;5027650;28;82069;-48
2022/06/05 10:43:01;;;;;;;;;;;23.80;64.60;;;;;;5028501;28;82396;-48
2022/06/05 10:45:39;;;;;;;;;;;23.80;64.50;;;;;;5030012;28;82759;-48
2022/06/05 10:48:08;;;;;;;;;;;23.80;64.40;;;;;;5027552;28;84165;-47
2022/06/05 10:50:52;;;;;;;;;;;23.80;64.30;;;;;;5026759;28;84038;-48
2022/06/05 10:53:20;;;;;;;;;;;23.90;64.40;;;;;;5027471;28;82097;-47
2022/06/05 10:55:55;;;;;;;;;;;23.90;64.30;;;;;;5027525;28;83960;-48
2022/06/05 10:58:25;;;;;;;;;;;23.90;64.30;;;;;;5027483;28;83127;-49
2022/06/05 11:00:58;;;;;;;;;;;23.90;64.20;;;;;;5027410;28;81823;-48
2022/06/05 11:03:27;;;;;;;;;;;24.00;64.20;;;;;;5027356;28;82327;-49
2022/06/05 11:06:02;;;;;;;;;;;24.00;64.20;;;;;;5027028;28;84520;-49
2022/06/05 11:08:33;;;;;;;;;;;24.00;64.20;;;;;;5030477;28;81479;-48
2022/06/05 11:14:07;;;;;;;;;;;24.00;64.10;;;;;;5027585;28;81686;-49
2022/06/05 11:16:51;;;;;;;;;;;24.00;64.00;;;;;;5026860;28;82815;-48
2022/06/05 11:19:17;;;;;;;;;;;24.10;63.90;;;;;;5027289;28;82949;-47
2022/06/05 11:21:43;;;;;;;;;;;24.10;63.90;;;;;;5027004;28;82130;-47
2022/06/05 11:24:35;;;;;;;;;;;24.10;63.90;;;;;;5027061;28;81951;-46
2022/06/05 11:27:03;;;;;;;;;;;24.20;63.90;;;;;;5024593;28;83124;-47
2022/06/05 11:29:52;;;;;;;;;;;24.20;63.70;;;;;;5027213;28;82054;-47
2022/06/05 11:32:20;;;;;;;;;;;24.20;63.70;;;;;;5024019;28;82356;-47
2022/06/05 11:34:51;;;;;;;;;;;24.20;63.60;;;;;;5027599;28;81319;-47
2022/06/05 11:37:16;;;;;;;;;;;24.20;63.60;;;;;;5027030;28;82063;-49
2022/06/05 11:39:46;;;;;;;;;;;24.20;63.50;;;;;;5026874;28;82097;-49
2022/06/05 11:42:12;;;;;;;;;;;24.20;63.60;;;;;;5026175;28;82987;-47
2022/06/05 11:44:44;;;;;;;;;;;24.20;63.20;;;;;;5027152;28;83374;-48
2022/06/05 11:47:25;;;;;;;;;;;24.30;63.50;;;;;;5026698;28;82957;-48
2022/06/05 11:49:53;;;;;;;;;;;24.30;63.50;;;;;;5026855;28;81913;-48
2022/06/05 11:52:29;;;;;;;;;;;24.30;63.50;;;;;;5026756;28;82631;-47
2022/06/05 11:54:57;;;;;;;;;;;24.30;63.50;;;;;;5029224;28;82840;-48
2022/06/05 11:57:29;;;;;;;;;;;24.30;63.30;;;;;;5025700;28;83873;-48
2022/06/05 12:00:03;;;;;;;;;;;24.40;63.40;;;;;;5027155;28;81515;-47
2022/06/05 12:02:31;;;;;;;;;;;24.40;63.50;;;;;;5026509;28;82209;-48
2022/06/05 12:05:04;;;;;;;;;;;24.40;64.10;;;;;;5026396;28;84102;-47
2022/06/05 12:07:29;;;;;;;;;;;24.30;63.30;;;;;;5025549;28;83855;-47
2022/06/05 12:09:58;;;;;;;;;;;24.40;63.50;;;;;;5026652;28;82067;-49
2022/06/05 12:12:26;;;;;;;;;;;24.40;63.50;;;;;;5026459;28;82523;-47
2022/06/05 12:14:58;;;;;;;;;;;24.40;63.50;;;;;;5028927;28;82064;-47
2022/06/05 12:17:42;;;;;;;;;;;24.40;63.50;;;;;;5026726;28;82400;-48
2022/06/05 12:20:17;;;;;;;;;;;24.50;63.50;;;;;;5026021;28;84291;-50
2022/06/05 12:22:46;;;;;;;;;;;24.50;63.40;;;;;;5026600;28;82092;-48
2022/06/05 12:25:12;;;;;;;;;;;24.50;63.40;;;;;;5026066;28;84473;-47
2022/06/05 12:27:52;;;;;;;;;;;24.50;63.30;;;;;;5026301;28;82554;-48
2022/06/05 12:30:23;;;;;;;;;;;24.50;63.20;;;;;;5026183;28;81943;-47
2022/06/05 12:33:07;;;;;;;;;;;24.60;63.30;;;;;;5025614;28;83843;-47
2022/06/05 12:35:34;;;;;;;;;;;24.60;63.30;;;;;;5026104;28;83198;-48
2022/06/05 12:38:00;;;;;;;;;;;24.60;63.30;;;;;;5028718;28;82113;-49
2022/06/05 12:40:30;;;;;;;;;;;24.60;63.30;;;;;;5025894;28;83077;-49
2022/06/05 12:43:01;;;;;;;;;;;24.70;63.20;;;;;;5025918;28;82062;-48
2022/06/05 12:45:29;;;;;;;;;;;24.70;63.20;;;;;;5026163;28;82391;-48
2022/06/05 12:48:04;;;;;;;;;;;24.70;63.20;;;;;;5025757;28;84251;-47
2022/06/05 12:50:38;;;;;;;;;;;24.80;63.10;;;;;;5026576;28;81803;-47
2022/06/05 12:53:22;;;;;;;;;;;24.80;63.00;;;;;;5025539;28;81975;-47
2022/06/05 12:55:57;;;;;;;;;;;24.80;63.10;;;;;;5025629;28;83090;-47
2022/06/05 12:58:33;;;;;;;;;;;24.80;62.90;;;;;;5025211;28;83057;-47
2022/06/05 13:01:28;;;;;;;;;;;24.90;62.90;;;;;;5027951;28;85202;-48
2022/06/05 13:04:02;;;;;;;;;;;24.80;62.80;;;;;;5016158;28;82148;-48
2022/06/05 13:06:27;;;;;;;;;;;24.90;62.80;;;;;;5026069;28;82404;-47
2022/06/05 13:08:59;;;;;;;;;;;24.80;62.90;;;;;;5027245;28;83098;-47
2022/06/05 13:11:24;;;;;;;;;;;24.90;62.90;;;;;;5028936;28;82141;-48
2022/06/05 13:14:02;;;;;;;;;;;24.90;62.90;;;;;;5029402;28;82245;-47
2022/06/05 13:16:28;;;;;;;;;;;25.00;62.90;;;;;;5029829;28;82321;-47
2022/06/05 13:18:56;;;;;;;;;;;25.00;62.80;;;;;;5029383;28;82012;-48
2022/06/05 13:21:24;;;;;;;;;;;25.00;62.80;;;;;;5028855;28;83972;-48
2022/06/05 13:24:01;;;;;;;;;;;25.10;62.70;;;;;;5030577;28;83738;-48
2022/06/05 13:26:47;;;;;;;;;;;25.10;62.60;;;;;;5029152;28;82288;-47
2022/06/05 13:29:19;;;;;;;;;;;25.10;63.20;;;;;;5028793;28;83126;-47
2022/06/05 13:31:57;;;;;;;;;;;25.20;62.30;;;;;;5029122;28;81833;-46
2022/06/05 13:34:22;;;;;;;;;;;25.20;62.20;;;;;;5028536;28;83988;-48
2022/06/05 13:36:48;;;;;;;;;;;25.20;62.20;;;;;;5028772;28;82870;-47
2022/06/05 13:39:26;;;;;;;;;;;25.20;62.20;;;;;;5028489;28;82352;-48
2022/06/05 13:41:57;;;;;;;;;;;25.20;61.90;;;;;;5029101;28;83906;-47
2022/06/05 13:44:24;;;;;;;;;;;25.20;62.10;;;;;;5028253;28;84242;-49
2022/06/05 13:47:05;;;;;;;;;;;25.30;62.20;;;;;;5031245;28;82351;-47
2022/06/05 13:49:33;;;;;;;;;;;25.30;61.80;;;;;;5028140;28;83163;-47
2022/06/05 13:52:17;;;;;;;;;;;25.30;61.70;;;;;;5028399;28;82097;-47
2022/06/05 13:54:48;;;;;;;;;;;25.40;61.60;;;;;;5028772;28;81892;-48
2022/06/05 13:57:14;;;;;;;;;;;25.40;61.40;;;;;;5028327;28;82868;-47
2022/06/05 13:59:43;;;;;;;;;;;25.40;61.50;;;;;;5028678;28;82055;-47
2022/06/05 14:02:27;;;;;;;;;;;25.40;61.50;;;;;;5028565;28;82758;-48
2022/06/05 14:05:02;;;;;;;;;;;25.40;61.40;;;;;;5028402;28;83024;-46
2022/06/05 14:07:39;;;;;;;;;;;25.50;61.50;;;;;;5029127;28;81661;-47
2022/06/05 14:10:17;;;;;;;;;;;25.50;61.80;;;;;;5030668;28;82491;-47
2022/06/05 14:13:05;;;;;;;;;;;25.50;61.70;;;;;;5028174;28;81980;-46
2022/06/05 14:15:47;;;;;;;;;;;25.50;61.80;;;;;;5021788;28;83947;-47
2022/06/05 14:18:40;;;;;;;;;;;25.60;61.80;;;;;;5027737;28;84249;-48
2022/06/05 14:21:06;;;;;;;;;;;25.60;61.30;;;;;;5027560;28;81933;-48
2022/06/05 14:23:32;;;;;;;;;;;25.60;61.40;;;;;;5027907;28;83923;-48
2022/06/05 14:26:04;;;;;;;;;;;25.70;61.40;;;;;;5028005;28;83035;-47
2022/06/05 14:28:34;;;;;;;;;;;25.60;61.10;;;;;;5028163;28;82034;-47
2022/06/05 14:31:02;;;;;;;;;;;25.70;61.00;;;;;;5030802;28;82531;-48
2022/06/05 14:33:32;;;;;;;;;;;25.60;61.20;;;;;;5028162;28;81201;-47
2022/06/05 14:35:58;;;;;;;;;;;25.60;61.10;;;;;;5028118;28;81916;-48
2022/06/05 14:38:36;;;;;;;;;;;25.50;61.60;;;;;;5028010;28;82889;-47
2022/06/05 14:41:07;;;;;;;;;;;25.50;61.40;;;;;;5027393;28;82990;-47
2022/06/05 14:43:51;;;;;;;;;;;25.60;61.30;;;;;;5027696;28;85133;-47
2022/06/05 14:46:35;;;;;;;;;;;25.60;61.30;;;;;;5027809;28;82953;-47
2022/06/05 14:49:01;;;;;;;;;;;25.70;61.30;;;;;;5027630;28;82049;-47
2022/06/05 14:51:38;;;;;;;;;;;25.70;61.30;;;;;;5027312;28;82278;-47
2022/06/05 14:54:16;;;;;;;;;;;25.70;61.20;;;;;;5030326;28;82978;-46
2022/06/05 14:59:51;;;;;;;;;;;25.70;60.90;;;;;;5028437;28;81474;-47